Time;durP1;ratioP1;P1;durP2;ratioP2;P2;SDS_P1;SDS_P2;PMS_P1;PMS_P2;Temp;Humidity;BMP_temperature;BMP_pressure;BME280_temperature;BME280_humidity;BME280_pressure;Samples;Min_cycle;Max_cycle;Signal;HPM_P1;HPM_P2
2021/12/02 00:01:03;;;;;;;1.10;0.97;;;;;;;5.31;100.00;96516.19;5139759;27;20213;-67
2021/12/02 00:03:29;;;;;;;1.13;0.87;;;;;;;5.25;100.00;96528.94;5139407;27;20713;-67
2021/12/02 00:05:57;;;;;;;1.20;1.10;;;;;;;5.17;100.00;96529.50;5137971;27;20247;-68
2021/12/02 00:08:23;;;;;;;2.10;0.90;;;;;;;5.13;100.00;96517.56;5140423;27;20222;-67
2021/12/02 00:10:50;;;;;;;1.60;1.00;;;;;;;5.04;100.00;96531.31;5139254;27;20212;-68
2021/12/02 00:13:21;;;;;;;1.80;0.90;;;;;;;5.03;100.00;96527.03;5133869;27;20217;-67
2021/12/02 00:15:53;;;;;;;3.30;1.20;;;;;;;5.01;100.00;96528.91;5137345;27;20253;-68
2021/12/02 00:21:06;;;;;;;2.20;0.90;;;;;;;4.81;100.00;96529.53;5131825;27;20211;-68
2021/12/02 00:23:36;;;;;;;1.07;0.80;;;;;;;4.74;100.00;96519.59;5140159;27;20207;-68
2021/12/02 00:26:05;;;;;;;2.30;1.00;;;;;;;4.69;100.00;96522.56;5140609;27;20211;-68
2021/12/02 00:28:32;;;;;;;1.43;0.90;;;;;;;4.64;100.00;96522.03;5139167;27;20225;-68
2021/12/02 00:31:00;;;;;;;0.90;0.80;;;;;;;4.59;100.00;96521.53;5139322;27;20219;-68
2021/12/02 00:33:28;;;;;;;1.60;0.87;;;;;;;4.56;100.00;96521.75;5140249;27;20222;-68
2021/12/02 00:35:55;;;;;;;1.63;0.93;;;;;;;4.47;100.00;96532.84;5140176;27;20223;-68
2021/12/02 00:38:25;;;;;;;1.40;0.80;;;;;;;4.47;100.00;96548.53;5138914;27;20215;-68
2021/12/02 00:40:53;;;;;;;1.13;1.03;;;;;;;4.37;100.00;96542.31;5137329;27;20205;-68
2021/12/02 00:43:19;;;;;;;1.70;0.90;;;;;;;4.25;100.00;96550.16;5140331;27;20700;-68
2021/12/02 00:45:47;;;;;;;2.20;1.20;;;;;;;4.20;100.00;96554.84;5139888;27;20598;-68
2021/12/02 00:48:15;;;;;;;1.77;1.10;;;;;;;4.08;100.00;96551.31;5138642;27;20219;-68
2021/12/02 00:50:45;;;;;;;1.90;1.37;;;;;;;4.09;100.00;96549.56;5138900;27;20318;-68
2021/12/02 00:53:12;;;;;;;1.90;0.97;;;;;;;4.19;100.00;96547.97;5140636;27;20208;-68
2021/12/02 00:55:41;;;;;;;1.93;0.87;;;;;;;4.34;100.00;96547.75;5139220;27;20223;-68
2021/12/02 00:58:11;;;;;;;1.67;0.90;;;;;;;4.51;100.00;96543.94;5138738;27;20234;-68
2021/12/02 01:00:38;;;;;;;1.07;0.97;;;;;;;4.54;100.00;96556.81;5138454;27;20298;-68
2021/12/02 01:03:05;;;;;;;2.43;0.93;;;;;;;4.70;100.00;96550.38;5140949;27;20215;-68
2021/12/02 01:05:32;;;;;;;1.00;0.90;;;;;;;4.89;100.00;96548.13;5133510;27;20212;-68
2021/12/02 01:08:01;;;;;;;2.47;1.00;;;;;;;5.02;100.00;96543.66;5136926;27;20243;-67
2021/12/02 01:10:28;;;;;;;1.30;0.83;;;;;;;5.21;100.00;96546.66;5138106;27;20553;-67
2021/12/02 01:12:57;;;;;;;1.47;1.00;;;;;;;5.29;100.00;96554.78;5140800;27;20220;-68
2021/12/02 01:15:25;;;;;;;1.60;0.80;;;;;;;5.34;100.00;96542.19;5132850;27;20673;-68
2021/12/02 01:17:52;;;;;;;0.97;0.90;;;;;;;5.38;100.00;96546.22;5138216;27;20244;-67
2021/12/02 01:20:18;;;;;;;1.83;0.93;;;;;;;5.49;100.00;96538.41;5138133;27;20226;-68
2021/12/02 01:22:49;;;;;;;2.50;0.67;;;;;;;5.54;100.00;96544.16;5140899;27;20281;-68
2021/12/02 01:25:18;;;;;;;0.77;0.70;;;;;;;5.56;100.00;96539.63;5132872;27;20225;-68
2021/12/02 01:27:48;;;;;;;1.17;1.00;;;;;;;5.47;100.00;96542.94;5136734;27;20223;-68
2021/12/02 01:30:16;;;;;;;2.03;0.80;;;;;;;5.46;100.00;96527.34;5133384;27;20212;-68
2021/12/02 01:32:45;;;;;;;2.13;0.93;;;;;;;5.41;100.00;96538.16;5138875;27;20215;-68
2021/12/02 01:35:12;;;;;;;2.10;1.00;;;;;;;5.45;100.00;96550.06;5137900;27;20215;-68
2021/12/02 01:37:40;;;;;;;2.30;0.80;;;;;;;5.45;100.00;96555.31;5137698;27;20243;-68
2021/12/02 01:40:07;;;;;;;1.10;1.00;;;;;;;5.40;100.00;96554.84;5137422;27;20215;-68
2021/12/02 01:42:41;;;;;;;1.23;0.80;;;;;;;5.46;100.00;96567.47;5137727;27;20215;-68
2021/12/02 01:45:14;;;;;;;2.77;1.00;;;;;;;5.50;100.00;96570.72;5136717;27;20341;-68
2021/12/02 01:47:47;;;;;;;1.87;1.17;;;;;;;5.51;100.00;96570.56;5137809;27;20213;-68
2021/12/02 01:50:16;;;;;;;2.10;1.10;;;;;;;5.64;100.00;96560.88;5139886;27;20216;-68
2021/12/02 01:52:45;;;;;;;1.23;0.80;;;;;;;5.76;100.00;96566.97;5137686;27;20216;-68
2021/12/02 01:55:14;;;;;;;2.33;1.07;;;;;;;5.79;100.00;96570.19;5137605;27;20216;-68
2021/12/02 01:57:43;;;;;;;0.87;0.60;;;;;;;5.82;100.00;96564.78;5136721;27;20236;-68
2021/12/02 02:00:14;;;;;;;2.27;1.00;;;;;;;5.85;100.00;96568.94;5138959;27;20213;-68
2021/12/02 02:02:43;;;;;;;2.37;0.93;;;;;;;5.89;100.00;96565.97;5132908;27;20582;-68
2021/12/02 02:05:13;;;;;;;3.43;0.93;;;;;;;5.86;100.00;96562.75;5134398;27;20577;-67
2021/12/02 02:07:52;;;;;;;0.80;0.80;;;;;;;5.88;100.00;96564.31;5137073;27;20561;-67
2021/12/02 02:10:19;;;;;;;1.00;0.80;;;;;;;5.83;100.00;96561.19;5135783;27;20217;-68
2021/12/02 02:12:45;;;;;;;2.40;0.93;;;;;;;5.84;100.00;96564.63;5137354;27;20213;-68
2021/12/02 02:15:12;;;;;;;3.20;0.90;;;;;;;5.78;100.00;96562.44;5137483;27;20584;-68
2021/12/02 02:17:43;;;;;;;2.77;1.07;;;;;;;5.82;100.00;96564.78;5138097;27;20231;-68
2021/12/02 02:20:14;;;;;;;2.63;1.10;;;;;;;5.80;100.00;96571.91;5137911;27;20277;-68
2021/12/02 02:22:41;;;;;;;1.70;0.97;;;;;;;5.66;100.00;96564.22;5136892;27;20215;-68
2021/12/02 02:25:13;;;;;;;1.73;0.70;;;;;;;5.53;100.00;96570.47;5135508;27;20218;-68
2021/12/02 02:27:40;;;;;;;1.67;0.80;;;;;;;5.46;100.00;96566.63;5139813;27;20307;-68
2021/12/02 02:30:10;;;;;;;1.90;0.70;;;;;;;5.43;100.00;96567.69;5131838;27;20219;-68
2021/12/02 02:32:37;;;;;;;1.93;1.00;;;;;;;5.37;100.00;96557.66;5136982;27;20219;-68
2021/12/02 02:35:05;;;;;;;0.80;0.80;;;;;;;5.29;100.00;96561.78;5137071;27;20243;-68
2021/12/02 02:37:33;;;;;;;0.73;0.70;;;;;;;5.17;100.00;96567.91;5139454;27;20244;-68
2021/12/02 02:40:04;;;;;;;0.97;0.80;;;;;;;5.11;100.00;96566.59;5136626;27;20218;-68
2021/12/02 02:42:31;;;;;;;1.87;0.90;;;;;;;5.08;100.00;96561.56;5136581;27;20258;-68
2021/12/02 02:44:57;;;;;;;0.60;0.50;;;;;;;5.02;100.00;96567.22;5132109;27;20692;-68
2021/12/02 02:47:26;;;;;;;2.30;1.00;;;;;;;4.96;100.00;96567.66;5139575;27;20217;-68
2021/12/02 02:49:53;;;;;;;1.80;0.80;;;;;;;4.76;100.00;96565.66;5135784;27;20303;-68
2021/12/02 02:52:20;;;;;;;1.60;0.90;;;;;;;4.71;100.00;96557.28;5136373;27;20219;-68
2021/12/02 02:54:47;;;;;;;1.50;0.80;;;;;;;4.61;100.00;96565.91;5136409;27;20217;-68
2021/12/02 02:57:17;;;;;;;2.03;0.80;;;;;;;4.58;100.00;96559.09;5140948;27;20237;-68
2021/12/02 02:59:58;;;;;;;2.20;0.70;;;;;;;4.55;100.00;96569.78;5140676;27;20261;-68
2021/12/02 03:02:32;;;;;;;0.63;0.60;;;;;;;4.43;100.00;96557.56;5133925;27;20672;-68
2021/12/02 03:05:06;;;;;;;0.50;0.50;;;;;;;4.46;100.00;96559.97;5142699;27;20221;-68
2021/12/02 03:07:37;;;;;;;0.63;0.50;;;;;;;4.37;100.00;96547.53;5136115;27;20271;-68
2021/12/02 03:10:12;;;;;;;1.07;0.70;;;;;;;4.21;100.00;96546.09;5140385;27;20229;-68
2021/12/02 03:12:43;;;;;;;1.07;0.63;;;;;;;4.12;100.00;96550.19;5140891;27;20694;-68
2021/12/02 03:17:54;;;;;;;2.40;0.77;;;;;;;4.01;100.00;96544.00;5138672;27;20326;-68
2021/12/02 03:20:21;;;;;;;0.63;0.63;;;;;;;4.01;100.00;96550.06;5140727;27;20214;-68
2021/12/02 03:22:47;;;;;;;0.70;0.60;;;;;;;4.12;100.00;96542.34;5143430;27;20217;-68
2021/12/02 03:25:14;;;;;;;1.07;0.60;;;;;;;4.25;100.00;96539.69;5140483;27;20215;-68
2021/12/02 03:27:42;;;;;;;1.03;0.60;;;;;;;4.32;100.00;96547.03;5140286;27;20210;-68
2021/12/02 03:30:09;;;;;;;0.50;0.40;;;;;;;4.37;100.00;96539.69;5140058;27;20694;-68
2021/12/02 03:32:37;;;;;;;2.20;0.80;;;;;;;4.35;100.00;96538.94;5143185;27;20217;-68
2021/12/02 03:35:05;;;;;;;1.40;0.80;;;;;;;4.46;100.00;96530.38;5140148;27;20302;-68
2021/12/02 03:37:31;;;;;;;1.40;0.90;;;;;;;4.47;100.00;96535.47;5140042;27;20234;-68
2021/12/02 03:39:58;;;;;;;0.50;0.50;;;;;;;4.45;100.00;96539.97;5140233;27;20222;-68
2021/12/02 03:42:24;;;;;;;1.23;0.70;;;;;;;4.36;100.00;96538.03;5141288;27;20218;-68
2021/12/02 03:44:52;;;;;;;1.90;0.93;;;;;;;4.29;100.00;96534.13;5135012;27;20239;-68
2021/12/02 03:47:18;;;;;;;1.17;0.90;;;;;;;4.25;100.00;96537.94;5140017;27;20217;-68
2021/12/02 03:49:45;;;;;;;2.10;0.70;;;;;;;4.23;100.00;96545.03;5140035;27;20218;-68
2021/12/02 03:52:11;;;;;;;1.20;0.70;;;;;;;4.00;100.00;96543.19;5141935;27;20219;-67
2021/12/02 03:54:38;;;;;;;1.10;0.70;;;;;;;4.04;100.00;96549.84;5140133;27;20214;-68
2021/12/02 03:57:05;;;;;;;1.23;0.70;;;;;;;4.03;100.00;96560.44;5139455;27;20220;-68
2021/12/02 03:59:32;;;;;;;1.20;0.80;;;;;;;4.08;100.00;96548.72;5137241;27;20705;-68
2021/12/02 04:02:00;;;;;;;3.53;0.83;;;;;;;4.17;100.00;96549.84;5141338;27;20220;-68
2021/12/02 04:04:26;;;;;;;0.97;0.60;;;;;;;4.30;100.00;96551.53;5137044;27;20221;-67
2021/12/02 04:06:53;;;;;;;1.77;0.90;;;;;;;4.28;100.00;96548.16;5139568;27;20211;-68
2021/12/02 04:09:21;;;;;;;1.30;0.70;;;;;;;4.29;100.00;96549.81;5137554;27;20214;-68
2021/12/02 04:11:54;;;;;;;1.60;0.80;;;;;;;4.32;100.00;96554.88;5141413;27;20217;-68
2021/12/02 04:14:24;;;;;;;0.70;0.70;;;;;;;4.37;100.00;96550.16;5133840;27;20677;-68
2021/12/02 04:16:55;;;;;;;2.40;0.80;;;;;;;4.43;100.00;96552.34;5139056;27;20218;-68
2021/12/02 04:19:23;;;;;;;2.13;0.90;;;;;;;4.42;100.00;96544.59;5139104;27;20238;-68
2021/12/02 04:21:51;;;;;;;1.67;0.87;;;;;;;4.40;100.00;96552.53;5142164;27;20577;-68
2021/12/02 04:24:17;;;;;;;1.73;0.80;;;;;;;4.37;100.00;96551.91;5139017;27;20210;-68
2021/12/02 04:26:44;;;;;;;1.87;1.00;;;;;;;4.29;100.00;96549.00;5139042;27;20218;-68
2021/12/02 04:29:11;;;;;;;1.63;0.90;;;;;;;4.32;100.00;96541.78;5139008;27;20215;-68
2021/12/02 04:31:38;;;;;;;1.23;0.80;;;;;;;4.35;100.00;96538.13;5142017;27;20214;-68
2021/12/02 04:34:05;;;;;;;0.70;0.70;;;;;;;4.39;100.00;96540.41;5137519;27;20214;-67
2021/12/02 04:36:32;;;;;;;0.73;0.70;;;;;;;4.44;100.00;96530.47;5138760;27;20235;-67
2021/12/02 04:38:59;;;;;;;1.90;0.90;;;;;;;4.45;100.00;96524.28;5138975;27;20583;-68
2021/12/02 04:41:25;;;;;;;1.97;0.90;;;;;;;4.42;100.00;96524.53;5141601;27;20213;-68
2021/12/02 04:43:52;;;;;;;0.70;0.70;;;;;;;4.36;100.00;96519.72;5139015;27;20257;-68
2021/12/02 04:46:19;;;;;;;1.17;0.90;;;;;;;4.29;100.00;96525.47;5138792;27;20222;-67
2021/12/02 04:48:45;;;;;;;0.97;0.97;;;;;;;4.29;100.00;96523.69;5138419;27;20211;-67
2021/12/02 04:51:12;;;;;;;1.10;0.87;;;;;;;4.24;100.00;96525.81;5141178;27;20210;-67
2021/12/02 04:53:40;;;;;;;0.80;0.70;;;;;;;4.27;100.00;96532.59;5139050;27;20600;-67
2021/12/02 04:56:06;;;;;;;3.07;1.30;;;;;;;4.27;100.00;96530.81;5138836;27;20284;-67
2021/12/02 04:58:32;;;;;;;1.20;1.10;;;;;;;4.20;100.00;96526.09;5138689;27;20234;-67
2021/12/02 05:00:59;;;;;;;1.43;0.90;;;;;;;4.15;100.00;96520.38;5139127;27;20218;-67
2021/12/02 05:03:26;;;;;;;1.40;1.00;;;;;;;4.18;100.00;96525.38;5138822;27;20214;-67
2021/12/02 05:05:52;;;;;;;1.97;0.90;;;;;;;4.16;100.00;96530.72;5138406;27;20212;-67
2021/12/02 05:08:18;;;;;;;1.07;0.97;;;;;;;4.19;100.00;96527.91;5138197;27;20671;-67
2021/12/02 05:10:46;;;;;;;2.30;0.80;;;;;;;4.22;100.00;96532.91;5140076;27;20219;-66
2021/12/02 05:13:13;;;;;;;0.90;0.80;;;;;;;4.26;100.00;96534.38;5139311;27;20582;-67
2021/12/02 05:15:39;;;;;;;3.77;1.10;;;;;;;4.30;100.00;96528.00;5137986;27;20228;-67
2021/12/02 05:18:07;;;;;;;3.10;0.83;;;;;;;4.29;100.00;96534.13;5138272;27;20230;-67
2021/12/02 05:20:33;;;;;;;1.70;0.87;;;;;;;4.29;100.00;96531.53;5138524;27;20216;-67
2021/12/02 05:23:00;;;;;;;1.90;0.83;;;;;;;4.35;100.00;96531.09;5139259;27;20220;-67
2021/12/02 05:25:26;;;;;;;3.07;1.00;;;;;;;4.33;100.00;96529.56;5137712;27;20664;-67
2021/12/02 05:27:54;;;;;;;1.03;0.80;;;;;;;4.32;100.00;96536.56;5136400;27;20218;-67
2021/12/02 05:30:21;;;;;;;1.73;0.80;;;;;;;4.24;100.00;96538.03;5138868;27;20210;-67
2021/12/02 05:32:47;;;;;;;1.73;0.80;;;;;;;4.18;100.00;96531.47;5139650;27;20215;-68
2021/12/02 05:35:14;;;;;;;1.00;0.83;;;;;;;4.10;100.00;96527.69;5137497;27;20219;-68
2021/12/02 05:37:40;;;;;;;0.97;0.80;;;;;;;4.03;100.00;96532.50;5137759;27;20215;-67
2021/12/02 05:40:08;;;;;;;2.03;0.60;;;;;;;3.96;100.00;96526.03;5137829;27;20682;-67
2021/12/02 05:42:35;;;;;;;0.70;0.70;;;;;;;4.03;100.00;96522.03;5139722;27;20210;-66
2021/12/02 05:45:03;;;;;;;0.87;0.77;;;;;;;4.01;100.00;96523.94;5137648;27;20296;-67
2021/12/02 05:47:30;;;;;;;0.97;0.60;;;;;;;4.06;100.00;96519.25;5137927;27;20221;-67
2021/12/02 05:49:56;;;;;;;1.70;0.87;;;;;;;4.08;100.00;96522.56;5137913;27;20220;-67
2021/12/02 05:52:23;;;;;;;0.60;0.60;;;;;;;4.21;100.00;96515.53;5137902;27;20678;-67
2021/12/02 05:54:50;;;;;;;0.60;0.60;;;;;;;4.20;100.00;96516.50;5137741;27;20219;-67
2021/12/02 05:57:17;;;;;;;1.07;0.50;;;;;;;4.12;100.00;96510.13;5129218;27;20222;-66
2021/12/02 05:59:43;;;;;;;1.13;0.60;;;;;;;4.09;100.00;96516.41;5137594;27;20223;-66
2021/12/02 06:02:11;;;;;;;0.53;0.50;;;;;;;3.98;100.00;96516.28;5139927;27;20229;-66
2021/12/02 06:04:39;;;;;;;0.97;0.90;;;;;;;4.05;100.00;96524.56;5134629;27;20206;-67
2021/12/02 06:07:06;;;;;;;0.70;0.70;;;;;;;4.19;100.00;96521.81;5128946;27;20266;-67
2021/12/02 06:09:33;;;;;;;0.70;0.70;;;;;;;4.30;100.00;96514.91;5137377;27;20296;-66
2021/12/02 06:11:59;;;;;;;1.03;0.80;;;;;;;4.42;100.00;96521.91;5140017;27;21936;-67
2021/12/02 06:14:26;;;;;;;1.30;0.80;;;;;;;4.53;100.00;96514.13;5137361;27;20205;-67
2021/12/02 06:16:52;;;;;;;0.80;0.80;;;;;;;4.47;100.00;96511.94;5136838;27;20210;-67
2021/12/02 06:19:20;;;;;;;1.63;0.70;;;;;;;4.33;100.00;96519.09;5135171;27;20235;-67
2021/12/02 06:21:48;;;;;;;0.70;0.70;;;;;;;4.20;100.00;96524.34;5139840;27;20220;-67
2021/12/02 06:24:14;;;;;;;0.63;0.63;;;;;;;4.30;100.00;96525.38;5137003;27;20217;-67
2021/12/02 06:26:41;;;;;;;1.53;0.80;;;;;;;4.34;100.00;96518.16;5137058;27;20245;-67
2021/12/02 06:29:07;;;;;;;1.83;0.60;;;;;;;4.45;100.00;96511.22;5135633;27;20213;-67
2021/12/02 06:31:34;;;;;;;1.53;0.67;;;;;;;4.51;100.00;96518.63;5139655;27;20210;-67
2021/12/02 06:34:01;;;;;;;0.97;0.63;;;;;;;4.60;100.00;96517.13;5136760;27;20216;-67
2021/12/02 06:36:29;;;;;;;1.07;0.77;;;;;;;4.69;100.00;96519.94;5136913;27;20320;-67
2021/12/02 06:38:56;;;;;;;1.57;0.83;;;;;;;4.55;100.00;96519.25;5136536;27;20698;-67
2021/12/02 06:41:22;;;;;;;0.83;0.70;;;;;;;4.35;100.00;96528.47;5139763;27;20217;-67
2021/12/02 06:43:49;;;;;;;0.90;0.63;;;;;;;4.09;100.00;96531.25;5136574;27;20230;-66
2021/12/02 06:46:15;;;;;;;0.67;0.67;;;;;;;3.93;100.00;96530.63;5135504;27;20208;-67
2021/12/02 06:48:42;;;;;;;0.80;0.80;;;;;;;3.85;100.00;96532.94;5136772;27;20210;-67
2021/12/02 06:51:10;;;;;;;1.77;0.80;;;;;;;3.87;100.00;96537.13;5139265;27;20232;-66
2021/12/02 06:53:38;;;;;;;1.20;0.90;;;;;;;3.95;100.00;96531.34;5136946;27;20246;-66
2021/12/02 06:56:05;;;;;;;0.77;0.70;;;;;;;4.00;100.00;96532.72;5136814;27;20217;-66
2021/12/02 06:58:31;;;;;;;0.97;0.70;;;;;;;4.10;100.00;96518.06;5136468;27;20242;-66
2021/12/02 07:00:58;;;;;;;1.57;0.77;;;;;;;4.22;100.00;96522.44;5138972;27;20214;-66
2021/12/02 07:03:25;;;;;;;1.33;0.90;;;;;;;4.30;100.00;96520.16;5137056;27;20213;-66
2021/12/02 07:05:51;;;;;;;1.47;0.70;;;;;;;4.35;100.00;96528.47;5133684;28;20211;-66
2021/12/02 07:08:19;;;;;;;1.37;0.70;;;;;;;4.40;100.00;96531.63;5136593;27;20210;-66
2021/12/02 07:10:47;;;;;;;1.23;0.63;;;;;;;4.49;100.00;96528.38;5136868;27;20214;-66
2021/12/02 07:13:14;;;;;;;0.60;0.60;;;;;;;4.50;100.00;96535.28;5136644;27;20302;-66
2021/12/02 07:15:44;;;;;;;0.60;0.60;;;;;;;4.53;100.00;96532.41;5136621;27;20217;-67
2021/12/02 07:18:13;;;;;;;0.97;0.70;;;;;;;4.54;100.00;96543.72;5136473;27;20214;-66
2021/12/02 07:20:41;;;;;;;1.30;0.60;;;;;;;4.54;100.00;96544.59;5138771;27;20728;-66
2021/12/02 07:23:08;;;;;;;0.60;0.60;;;;;;;4.53;100.00;96542.88;5131263;27;20217;-66
2021/12/02 07:25:34;;;;;;;1.97;0.70;;;;;;;4.58;100.00;96546.03;5136466;27;20207;-67
2021/12/02 07:28:02;;;;;;;0.60;0.60;;;;;;;4.69;100.00;96546.09;5136447;27;20259;-66
2021/12/02 07:30:29;;;;;;;0.67;0.60;;;;;;;4.65;100.00;96554.28;5138676;27;20225;-66
2021/12/02 07:32:57;;;;;;;0.87;0.77;;;;;;;4.77;100.00;96556.03;5136656;27;20210;-66
2021/12/02 07:35:25;;;;;;;0.67;0.60;;;;;;;4.76;100.00;96549.94;5136397;27;20214;-66
2021/12/02 07:37:53;;;;;;;0.43;0.43;;;;;;;4.85;100.00;96554.53;5134806;27;20215;-66
2021/12/02 07:40:21;;;;;;;0.70;0.60;;;;;;;4.92;100.00;96555.78;5138819;27;20320;-66
2021/12/02 07:42:51;;;;;;;0.67;0.67;;;;;;;4.96;100.00;96546.72;5142974;27;20220;-66
2021/12/02 07:45:20;;;;;;;0.70;0.50;;;;;;;5.00;100.00;96553.44;5139855;27;20243;-67
2021/12/02 07:47:47;;;;;;;0.53;0.53;;;;;;;5.00;100.00;96552.63;5140017;27;20217;-66
2021/12/02 07:50:15;;;;;;;0.70;0.70;;;;;;;5.03;100.00;96553.22;5139324;27;20220;-69
2021/12/02 07:52:46;;;;;;;0.93;0.60;;;;;;;5.05;100.00;96551.31;5138862;27;20218;-70
2021/12/02 07:55:15;;;;;;;0.77;0.73;;;;;;;5.10;100.00;96558.84;5139085;27;20219;-70
2021/12/02 07:57:43;;;;;;;0.97;0.60;;;;;;;5.04;100.00;96547.03;5138351;27;20215;-70
2021/12/02 08:00:11;;;;;;;0.60;0.60;;;;;;;5.06;100.00;96550.38;5125373;27;20263;-69
2021/12/02 08:02:42;;;;;;;0.63;0.60;;;;;;;5.11;100.00;96550.03;5136994;27;20206;-69
2021/12/02 08:05:09;;;;;;;1.57;0.70;;;;;;;5.13;100.00;96556.81;5126934;27;20210;-69
2021/12/02 08:07:39;;;;;;;0.93;0.70;;;;;;;5.17;100.00;96563.53;5138946;27;20237;-69
2021/12/02 08:10:06;;;;;;;0.70;0.70;;;;;;;5.21;100.00;96567.59;5140839;27;20218;-70
2021/12/02 08:12:33;;;;;;;0.60;0.60;;;;;;;5.27;100.00;96561.06;5137877;27;20220;-69
2021/12/02 08:15:02;;;;;;;1.03;0.93;;;;;;;5.31;100.00;96571.22;5139304;27;20221;-69
2021/12/02 08:17:28;;;;;;;1.10;0.73;;;;;;;5.36;100.00;96566.47;5139546;27;20220;-70
2021/12/02 08:19:56;;;;;;;1.37;0.97;;;;;;;5.30;100.00;96572.16;5142238;27;20243;-70
2021/12/02 08:22:22;;;;;;;1.83;0.60;;;;;;;5.36;100.00;96568.25;5135699;27;20209;-69
2021/12/02 08:24:49;;;;;;;1.50;0.90;;;;;;;5.44;100.00;96564.13;5139013;27;20677;-69
2021/12/02 08:27:15;;;;;;;0.70;0.70;;;;;;;5.51;100.00;96575.81;5139121;27;20210;-69
2021/12/02 08:29:42;;;;;;;1.00;0.80;;;;;;;5.52;100.00;96561.78;5140026;27;20225;-69
2021/12/02 08:32:09;;;;;;;1.13;0.97;;;;;;;5.62;100.00;96570.63;5139068;27;20565;-69
2021/12/02 08:34:36;;;;;;;1.10;0.77;;;;;;;5.65;100.00;96570.41;5129274;27;20222;-69
2021/12/02 08:37:04;;;;;;;0.83;0.80;;;;;;;5.71;100.00;96569.94;5139134;27;20215;-69
2021/12/02 08:39:31;;;;;;;0.60;0.60;;;;;;;5.77;100.00;96566.88;5141153;27;20244;-69
2021/12/02 08:41:58;;;;;;;0.70;0.70;;;;;;;5.79;100.00;96570.19;5139134;27;20223;-69
2021/12/02 08:44:27;;;;;;;0.80;0.60;;;;;;;5.79;100.00;96564.97;5139091;27;20328;-69
2021/12/02 08:46:55;;;;;;;1.83;0.90;;;;;;;5.78;100.00;96571.16;5138804;27;20219;-70
2021/12/02 08:49:22;;;;;;;0.70;0.70;;;;;;;5.81;100.00;96570.94;5141224;27;20219;-70
2021/12/02 08:51:49;;;;;;;0.87;0.80;;;;;;;5.82;100.00;96564.78;5138798;27;20222;-69
2021/12/02 08:54:17;;;;;;;0.67;0.67;;;;;;;5.83;100.00;96565.59;5127887;27;20249;-69
2021/12/02 08:56:44;;;;;;;1.37;0.80;;;;;;;5.79;100.00;96567.59;5138201;27;20207;-69
2021/12/02 08:59:10;;;;;;;0.77;0.73;;;;;;;5.74;100.00;96566.25;5140729;27;20239;-70
2021/12/02 09:01:37;;;;;;;1.27;0.70;;;;;;;5.79;100.00;96567.59;5138953;27;20235;-69
2021/12/02 09:04:04;;;;;;;0.80;0.80;;;;;;;5.81;100.00;96563.09;5138489;27;20208;-69
2021/12/02 09:06:31;;;;;;;2.53;0.97;;;;;;;5.84;100.00;96562.88;5135511;27;20739;-69
2021/12/02 09:08:59;;;;;;;1.17;1.00;;;;;;;5.82;100.00;96572.66;5140401;27;20215;-69
2021/12/02 09:11:30;;;;;;;0.90;0.80;;;;;;;5.83;100.00;96560.34;5138743;27;20670;-69
2021/12/02 09:13:58;;;;;;;1.20;1.10;;;;;;;5.88;100.00;96558.22;5128349;27;20704;-69
2021/12/02 09:16:25;;;;;;;1.00;0.90;;;;;;;5.90;100.00;96572.88;5138350;27;20226;-67
2021/12/02 09:18:52;;;;;;;1.40;1.30;;;;;;;5.98;100.00;96575.75;5140285;27;20219;-67
2021/12/02 09:21:18;;;;;;;2.00;1.00;;;;;;;6.07;100.00;96574.22;5136957;27;20238;-67
2021/12/02 09:23:45;;;;;;;0.90;0.90;;;;;;;6.16;100.00;96579.59;5124592;27;20213;-68
2021/12/02 09:26:11;;;;;;;1.20;1.10;;;;;;;6.09;100.00;96583.66;5136805;27;20219;-67
2021/12/02 09:28:40;;;;;;;1.20;1.03;;;;;;;6.09;100.00;96582.81;5138812;27;20212;-68
2021/12/02 09:31:06;;;;;;;1.67;1.13;;;;;;;6.00;100.00;96588.75;5137030;27;20217;-67
2021/12/02 09:33:33;;;;;;;1.40;1.30;;;;;;;5.77;100.00;96592.22;5129364;27;20580;-68
2021/12/02 09:36:00;;;;;;;1.60;1.50;;;;;;;5.62;100.00;96596.81;5133818;27;20693;-68
2021/12/02 09:38:26;;;;;;;2.53;1.53;;;;;;;5.54;100.00;96591.31;5136138;27;20211;-68
2021/12/02 09:40:53;;;;;;;2.50;1.50;;;;;;;5.37;100.00;96591.72;5137116;27;20239;-66
2021/12/02 09:43:19;;;;;;;2.03;1.30;;;;;;;5.25;100.00;96597.84;5136230;27;20685;-66
2021/12/02 09:45:47;;;;;;;3.30;1.50;;;;;;;5.21;100.00;96603.41;5133366;27;20235;-66
2021/12/02 09:48:14;;;;;;;1.90;1.70;;;;;;;5.04;100.00;96604.63;5135568;27;20214;-66
2021/12/02 09:50:50;;;;;;;4.47;2.00;;;;;;;4.87;100.00;96614.59;5136760;27;20233;-65
2021/12/02 09:53:21;;;;;;;4.40;2.30;;;;;;;4.74;100.00;96622.50;5134013;27;20208;-65
2021/12/02 09:55:53;;;;;;;2.80;2.00;;;;;;;4.50;100.00;96632.06;5137533;27;20292;-64
2021/12/02 09:58:22;;;;;;;1.97;1.47;;;;;;;4.32;100.00;96625.47;5136574;27;20215;-64
2021/12/02 10:00:55;;;;;;;1.63;1.47;;;;;;;4.16;100.00;96632.66;5135852;27;20605;-64
2021/12/02 10:03:28;;;;;;;1.37;1.10;;;;;;;4.05;100.00;96624.75;5139336;27;20243;-65
2021/12/02 10:06:05;;;;;;;1.20;1.00;;;;;;;3.90;100.00;96630.97;5121459;27;20211;-64
2021/12/02 10:08:37;;;;;;;1.20;1.10;;;;;;;3.81;100.00;96626.38;5129774;27;20684;-65
2021/12/02 10:11:06;;;;;;;1.77;1.10;;;;;;;3.76;100.00;96628.44;5117998;27;20300;-65
2021/12/02 10:13:37;;;;;;;1.83;1.30;;;;;;;3.77;100.00;96624.88;5128857;27;20693;-64
2021/12/02 10:16:12;;;;;;;2.03;1.23;;;;;;;3.82;100.00;96629.81;5132790;27;20222;-64
2021/12/02 10:18:50;;;;;;;2.30;1.10;;;;;;;3.74;100.00;96625.06;5130687;27;20730;-65
2021/12/02 10:21:24;;;;;;;2.60;1.10;;;;;;;3.73;100.00;96631.25;5130866;27;20241;-65
2021/12/02 10:23:52;;;;;;;1.70;1.30;;;;;;;3.68;100.00;96630.69;5131794;27;20637;-64
2021/12/02 10:26:20;;;;;;;1.30;1.17;;;;;;;3.66;100.00;96631.78;5133741;27;20284;-64
2021/12/02 10:28:48;;;;;;;1.50;1.13;;;;;;;3.66;100.00;96629.16;5134325;27;20222;-65
2021/12/02 10:31:22;;;;;;;1.50;1.40;;;;;;;3.68;100.00;96616.81;5133817;27;20678;-65
2021/12/02 10:33:52;;;;;;;1.70;1.60;;;;;;;3.65;100.00;96620.47;5134159;27;20237;-64
2021/12/02 10:36:30;;;;;;;1.93;1.60;;;;;;;3.72;100.00;96620.91;5134052;27;20248;-65
2021/12/02 10:38:58;;;;;;;3.13;1.53;;;;;;;3.84;100.00;96627.94;5134238;27;20209;-65
2021/12/02 10:41:27;;;;;;;1.63;1.50;;;;;;;3.92;100.00;96638.72;5132156;27;20235;-65
2021/12/02 10:44:16;;;;;;;1.60;1.50;;;;;;;4.06;100.00;96631.63;5134082;27;20242;-65
2021/12/02 10:47:00;;;;;;;1.70;1.60;;;;;;;4.09;100.00;96626.19;5121859;28;20224;-65
2021/12/02 10:49:28;;;;;;;1.97;1.30;;;;;;;4.15;100.00;96620.53;5133817;28;20667;-65
2021/12/02 10:51:56;;;;;;;1.70;1.60;;;;;;;4.10;100.00;96627.84;5131104;28;20209;-65
2021/12/02 10:54:26;;;;;;;1.83;1.70;;;;;;;4.06;100.00;96630.78;5132499;28;20205;-65
2021/12/02 10:56:54;;;;;;;2.37;1.70;;;;;;;4.04;100.00;96623.03;5132611;28;20217;-65
2021/12/02 10:59:33;;;;;;;1.77;1.40;;;;;;;3.98;100.00;96633.91;5132172;28;20217;-65
2021/12/02 11:02:04;;;;;;;2.03;1.60;;;;;;;3.95;100.00;96626.28;5131413;28;20225;-65
2021/12/02 11:04:43;;;;;;;1.57;1.47;;;;;;;3.91;100.00;96631.81;5132407;28;20205;-65
2021/12/02 11:07:20;;;;;;;2.27;2.00;;;;;;;3.92;100.00;96629.09;5129503;27;20217;-65
2021/12/02 11:09:48;;;;;;;1.80;1.70;;;;;;;3.88;100.00;96625.03;5131791;28;20213;-65
2021/12/02 11:12:18;;;;;;;1.83;1.53;;;;;;;3.80;100.00;96637.72;5133690;28;20214;-65
2021/12/02 11:14:56;;;;;;;1.90;1.80;;;;;;;3.74;100.00;96629.47;5133727;27;20305;-65
2021/12/02 11:17:29;;;;;;;1.73;1.63;;;;;;;3.73;100.00;96628.63;5132463;27;20207;-65
2021/12/02 11:19:56;;;;;;;1.87;1.70;;;;;;;3.80;100.00;96629.91;5136531;27;20282;-64
2021/12/02 11:22:23;;;;;;;2.07;1.67;;;;;;;3.73;100.00;96644.31;5134916;27;20213;-64
2021/12/02 11:24:51;;;;;;;1.63;1.43;;;;;;;3.64;100.00;96642.31;5136529;27;20205;-64
2021/12/02 11:27:20;;;;;;;1.70;1.57;;;;;;;3.52;100.00;96645.72;5136168;27;20217;-64
2021/12/02 11:29:59;;;;;;;1.40;1.23;;;;;;;3.36;100.00;96639.81;5136477;27;20220;-64
2021/12/02 11:32:48;;;;;;;2.47;1.40;;;;;;;3.24;100.00;96639.78;5134751;27;20217;-64
2021/12/02 11:35:31;;;;;;;1.50;1.40;;;;;;;3.18;100.00;96624.50;5136296;27;20214;-64
2021/12/02 11:38:02;;;;;;;1.50;1.40;;;;;;;3.19;100.00;96628.78;5136172;27;20221;-63
2021/12/02 11:40:32;;;;;;;1.30;1.20;;;;;;;3.24;100.00;96624.09;5135730;27;20237;-64
2021/12/02 11:42:58;;;;;;;1.90;1.30;;;;;;;3.28;100.00;96631.63;5135999;27;20206;-64
2021/12/02 11:45:29;;;;;;;2.00;1.30;;;;;;;3.45;100.00;96631.41;5135533;27;20237;-64